sensor_id;sensor_type;location;lat;lon;timestamp;P1;durP1;ratioP1;P2;durP2;ratioP2
67348;SDS011;54234;50.320;3.474;2022-08-21T00:01:09;0.40;;;0.40;;
67348;SDS011;54234;50.320;3.474;2022-08-21T00:03:36;0.40;;;0.40;;
67348;SDS011;54234;50.320;3.474;2022-08-21T00:06:02;0.40;;;0.40;;
67348;SDS011;54234;50.320;3.474;2022-08-21T00:08:27;0.40;;;0.40;;
67348;SDS011;54234;50.320;3.474;2022-08-21T00:10:52;0.40;;;0.40;;
67348;SDS011;54234;50.320;3.474;2022-08-21T00:13:18;0.40;;;0.40;;
67348;SDS011;54234;50.320;3.474;2022-08-21T00:15:45;0.40;;;0.40;;
67348;SDS011;54234;50.320;3.474;2022-08-21T00:18:11;0.40;;;0.40;;
67348;SDS011;54234;50.320;3.474;2022-08-21T00:20:37;0.40;;;0.40;;
67348;SDS011;54234;50.320;3.474;2022-08-21T00:23:04;0.40;;;0.40;;
67348;SDS011;54234;50.320;3.474;2022-08-21T00:25:29;0.40;;;0.40;;
67348;SDS011;54234;50.320;3.474;2022-08-21T00:27:55;0.40;;;0.40;;
67348;SDS011;54234;50.320;3.474;2022-08-21T00:30:22;0.40;;;0.40;;
67348;SDS011;54234;50.320;3.474;2022-08-21T00:32:48;0.40;;;0.40;;
67348;SDS011;54234;50.320;3.474;2022-08-21T00:35:15;0.40;;;0.40;;
67348;SDS011;54234;50.320;3.474;2022-08-21T00:37:41;0.40;;;0.40;;
67348;SDS011;54234;50.320;3.474;2022-08-21T00:40:09;0.40;;;0.40;;
67348;SDS011;54234;50.320;3.474;2022-08-21T00:42:38;0.40;;;0.40;;
67348;SDS011;54234;50.320;3.474;2022-08-21T00:45:04;0.37;;;0.37;;
67348;SDS011;54234;50.320;3.474;2022-08-21T00:47:30;0.40;;;0.40;;
67348;SDS011;54234;50.320;3.474;2022-08-21T00:49:55;0.30;;;0.30;;
67348;SDS011;54234;50.320;3.474;2022-08-21T00:52:22;0.40;;;0.40;;
67348;SDS011;54234;50.320;3.474;2022-08-21T00:54:50;0.40;;;0.40;;
67348;SDS011;54234;50.320;3.474;2022-08-21T00:57:19;0.40;;;0.40;;
67348;SDS011;54234;50.320;3.474;2022-08-21T00:59:47;0.40;;;0.40;;
67348;SDS011;54234;50.320;3.474;2022-08-21T01:02:15;0.40;;;0.40;;
67348;SDS011;54234;50.320;3.474;2022-08-21T01:04:40;0.30;;;0.30;;
67348;SDS011;54234;50.320;3.474;2022-08-21T01:07:06;0.40;;;0.40;;
67348;SDS011;54234;50.320;3.474;2022-08-21T01:09:32;0.40;;;0.40;;
67348;SDS011;54234;50.320;3.474;2022-08-21T01:11:57;0.40;;;0.40;;
67348;SDS011;54234;50.320;3.474;2022-08-21T01:14:23;0.40;;;0.40;;
67348;SDS011;54234;50.320;3.474;2022-08-21T01:16:49;0.40;;;0.40;;
67348;SDS011;54234;50.320;3.474;2022-08-21T01:19:17;0.40;;;0.40;;
67348;SDS011;54234;50.320;3.474;2022-08-21T01:21:43;0.40;;;0.40;;
67348;SDS011;54234;50.320;3.474;2022-08-21T01:24:09;0.40;;;0.40;;
67348;SDS011;54234;50.320;3.474;2022-08-21T01:26:35;0.40;;;0.40;;
67348;SDS011;54234;50.320;3.474;2022-08-21T01:29:05;0.40;;;0.40;;
67348;SDS011;54234;50.320;3.474;2022-08-21T01:31:35;0.40;;;0.40;;
67348;SDS011;54234;50.320;3.474;2022-08-21T01:34:02;0.30;;;0.30;;
67348;SDS011;54234;50.320;3.474;2022-08-21T01:36:28;0.40;;;0.40;;
67348;SDS011;54234;50.320;3.474;2022-08-21T01:38:54;0.35;;;0.35;;
67348;SDS011;54234;50.320;3.474;2022-08-21T01:41:20;0.30;;;0.30;;
67348;SDS011;54234;50.320;3.474;2022-08-21T01:43:45;0.40;;;0.40;;
67348;SDS011;54234;50.320;3.474;2022-08-21T01:46:11;0.30;;;0.30;;
67348;SDS011;54234;50.320;3.474;2022-08-21T01:48:37;0.40;;;0.40;;
67348;SDS011;54234;50.320;3.474;2022-08-21T01:51:02;0.30;;;0.30;;
67348;SDS011;54234;50.320;3.474;2022-08-21T01:53:29;0.40;;;0.40;;
67348;SDS011;54234;50.320;3.474;2022-08-21T01:55:54;0.40;;;0.40;;
67348;SDS011;54234;50.320;3.474;2022-08-21T01:58:20;0.40;;;0.40;;
67348;SDS011;54234;50.320;3.474;2022-08-21T02:00:45;0.40;;;0.40;;
67348;SDS011;54234;50.320;3.474;2022-08-21T02:03:10;0.32;;;0.32;;
67348;SDS011;54234;50.320;3.474;2022-08-21T02:05:36;0.40;;;0.40;;
67348;SDS011;54234;50.320;3.474;2022-08-21T02:08:01;0.32;;;0.32;;
67348;SDS011;54234;50.320;3.474;2022-08-21T02:10:31;0.40;;;0.40;;
67348;SDS011;54234;50.320;3.474;2022-08-21T02:12:57;0.40;;;0.40;;
67348;SDS011;54234;50.320;3.474;2022-08-21T02:15:24;0.40;;;0.40;;
67348;SDS011;54234;50.320;3.474;2022-08-21T02:17:54;0.40;;;0.40;;
67348;SDS011;54234;50.320;3.474;2022-08-21T02:20:23;0.40;;;0.40;;
67348;SDS011;54234;50.320;3.474;2022-08-21T02:22:53;0.40;;;0.40;;
67348;SDS011;54234;50.320;3.474;2022-08-21T02:25:19;0.30;;;0.30;;
67348;SDS011;54234;50.320;3.474;2022-08-21T02:27:45;0.40;;;0.40;;
67348;SDS011;54234;50.320;3.474;2022-08-21T02:30:17;0.40;;;0.40;;
67348;SDS011;54234;50.320;3.474;2022-08-21T02:32:45;0.40;;;0.40;;
67348;SDS011;54234;50.320;3.474;2022-08-21T02:35:11;0.40;;;0.40;;
67348;SDS011;54234;50.320;3.474;2022-08-21T02:37:44;0.40;;;0.40;;
67348;SDS011;54234;50.320;3.474;2022-08-21T02:40:11;0.40;;;0.40;;
67348;SDS011;54234;50.320;3.474;2022-08-21T02:42:37;0.30;;;0.30;;
67348;SDS011;54234;50.320;3.474;2022-08-21T02:45:04;0.30;;;0.30;;
67348;SDS011;54234;50.320;3.474;2022-08-21T02:47:30;0.40;;;0.40;;
67348;SDS011;54234;50.320;3.474;2022-08-21T02:49:55;0.40;;;0.40;;
67348;SDS011;54234;50.320;3.474;2022-08-21T02:52:20;0.40;;;0.40;;
67348;SDS011;54234;50.320;3.474;2022-08-21T02:54:46;0.30;;;0.30;;
67348;SDS011;54234;50.320;3.474;2022-08-21T02:57:12;0.30;;;0.30;;
67348;SDS011;54234;50.320;3.474;2022-08-21T02:59:37;0.30;;;0.30;;
67348;SDS011;54234;50.320;3.474;2022-08-21T03:02:02;0.40;;;0.40;;
67348;SDS011;54234;50.320;3.474;2022-08-21T03:04:28;0.40;;;0.40;;
67348;SDS011;54234;50.320;3.474;2022-08-21T03:06:53;0.30;;;0.30;;
67348;SDS011;54234;50.320;3.474;2022-08-21T03:09:18;0.33;;;0.33;;
67348;SDS011;54234;50.320;3.474;2022-08-21T03:11:44;0.40;;;0.40;;
67348;SDS011;54234;50.320;3.474;2022-08-21T03:14:09;0.30;;;0.30;;
67348;SDS011;54234;50.320;3.474;2022-08-21T03:16:34;0.40;;;0.40;;
67348;SDS011;54234;50.320;3.474;2022-08-21T03:19:00;0.30;;;0.30;;
67348;SDS011;54234;50.320;3.474;2022-08-21T03:21:25;0.30;;;0.30;;
67348;SDS011;54234;50.320;3.474;2022-08-21T03:23:51;0.30;;;0.30;;
67348;SDS011;54234;50.320;3.474;2022-08-21T03:26:16;0.30;;;0.30;;
67348;SDS011;54234;50.320;3.474;2022-08-21T03:28:42;0.30;;;0.30;;
67348;SDS011;54234;50.320;3.474;2022-08-21T03:31:07;0.40;;;0.40;;
67348;SDS011;54234;50.320;3.474;2022-08-21T03:33:33;0.30;;;0.30;;
67348;SDS011;54234;50.320;3.474;2022-08-21T03:36:03;0.30;;;0.30;;
67348;SDS011;54234;50.320;3.474;2022-08-21T03:38:30;0.30;;;0.30;;
67348;SDS011;54234;50.320;3.474;2022-08-21T03:40:57;0.38;;;0.38;;
67348;SDS011;54234;50.320;3.474;2022-08-21T03:43:23;0.30;;;0.30;;
67348;SDS011;54234;50.320;3.474;2022-08-21T03:45:48;0.40;;;0.40;;
67348;SDS011;54234;50.320;3.474;2022-08-21T03:48:13;0.40;;;0.40;;
67348;SDS011;54234;50.320;3.474;2022-08-21T03:50:40;0.30;;;0.30;;
67348;SDS011;54234;50.320;3.474;2022-08-21T03:53:07;0.30;;;0.30;;
67348;SDS011;54234;50.320;3.474;2022-08-21T03:55:34;0.30;;;0.30;;
67348;SDS011;54234;50.320;3.474;2022-08-21T03:57:59;0.40;;;0.40;;
67348;SDS011;54234;50.320;3.474;2022-08-21T04:00:24;0.40;;;0.40;;
67348;SDS011;54234;50.320;3.474;2022-08-21T04:02:50;0.40;;;0.40;;
67348;SDS011;54234;50.320;3.474;2022-08-21T04:05:16;0.33;;;0.33;;
67348;SDS011;54234;50.320;3.474;2022-08-21T04:07:55;0.30;;;0.30;;
67348;SDS011;54234;50.320;3.474;2022-08-21T04:10:22;0.40;;;0.40;;
67348;SDS011;54234;50.320;3.474;2022-08-21T04:12:49;0.40;;;0.40;;
67348;SDS011;54234;50.320;3.474;2022-08-21T04:15:14;0.40;;;0.40;;
67348;SDS011;54234;50.320;3.474;2022-08-21T04:17:40;0.40;;;0.40;;
67348;SDS011;54234;50.320;3.474;2022-08-21T04:20:05;0.40;;;0.40;;
67348;SDS011;54234;50.320;3.474;2022-08-21T04:22:31;0.30;;;0.30;;
67348;SDS011;54234;50.320;3.474;2022-08-21T04:24:56;0.40;;;0.40;;
67348;SDS011;54234;50.320;3.474;2022-08-21T04:27:22;0.30;;;0.30;;
67348;SDS011;54234;50.320;3.474;2022-08-21T04:29:47;0.40;;;0.40;;
67348;SDS011;54234;50.320;3.474;2022-08-21T04:32:13;0.40;;;0.40;;
67348;SDS011;54234;50.320;3.474;2022-08-21T04:34:38;0.30;;;0.30;;
67348;SDS011;54234;50.320;3.474;2022-08-21T04:37:03;0.30;;;0.30;;
67348;SDS011;54234;50.320;3.474;2022-08-21T04:39:29;0.37;;;0.37;;
67348;SDS011;54234;50.320;3.474;2022-08-21T04:41:54;0.30;;;0.30;;
67348;SDS011;54234;50.320;3.474;2022-08-21T04:44:20;0.40;;;0.40;;
67348;SDS011;54234;50.320;3.474;2022-08-21T04:46:45;0.40;;;0.40;;
67348;SDS011;54234;50.320;3.474;2022-08-21T04:49:10;0.30;;;0.30;;
67348;SDS011;54234;50.320;3.474;2022-08-21T04:51:36;0.30;;;0.30;;
67348;SDS011;54234;50.320;3.474;2022-08-21T04:56:37;0.30;;;0.30;;
67348;SDS011;54234;50.320;3.474;2022-08-21T04:59:06;0.38;;;0.38;;
67348;SDS011;54234;50.320;3.474;2022-08-21T05:01:37;0.40;;;0.40;;
67348;SDS011;54234;50.320;3.474;2022-08-21T05:04:03;0.40;;;0.40;;
67348;SDS011;54234;50.320;3.474;2022-08-21T05:06:30;0.40;;;0.40;;
67348;SDS011;54234;50.320;3.474;2022-08-21T05:08:58;0.40;;;0.40;;
67348;SDS011;54234;50.320;3.474;2022-08-21T05:11:23;0.30;;;0.30;;
67348;SDS011;54234;50.320;3.474;2022-08-21T05:13:49;0.40;;;0.40;;
67348;SDS011;54234;50.320;3.474;2022-08-21T05:16:15;0.37;;;0.37;;
67348;SDS011;54234;50.320;3.474;2022-08-21T05:18:41;0.40;;;0.40;;
67348;SDS011;54234;50.320;3.474;2022-08-21T05:21:06;0.38;;;0.38;;
67348;SDS011;54234;50.320;3.474;2022-08-21T05:23:31;0.33;;;0.33;;
67348;SDS011;54234;50.320;3.474;2022-08-21T05:25:57;0.33;;;0.33;;
67348;SDS011;54234;50.320;3.474;2022-08-21T05:28:23;0.40;;;0.40;;
67348;SDS011;54234;50.320;3.474;2022-08-21T05:30:48;0.35;;;0.35;;
67348;SDS011;54234;50.320;3.474;2022-08-21T05:33:14;0.40;;;0.40;;
67348;SDS011;54234;50.320;3.474;2022-08-21T05:35:39;0.40;;;0.40;;
67348;SDS011;54234;50.320;3.474;2022-08-21T05:38:04;0.40;;;0.40;;
67348;SDS011;54234;50.320;3.474;2022-08-21T05:40:30;0.40;;;0.40;;
67348;SDS011;54234;50.320;3.474;2022-08-21T05:42:56;0.40;;;0.40;;
67348;SDS011;54234;50.320;3.474;2022-08-21T05:45:22;0.40;;;0.40;;
67348;SDS011;54234;50.320;3.474;2022-08-21T05:47:48;0.40;;;0.40;;
67348;SDS011;54234;50.320;3.474;2022-08-21T05:50:14;0.50;;;0.50;;
67348;SDS011;54234;50.320;3.474;2022-08-21T05:52:39;0.40;;;0.40;;
67348;SDS011;54234;50.320;3.474;2022-08-21T05:55:04;0.40;;;0.40;;
67348;SDS011;54234;50.320;3.474;2022-08-21T05:57:30;0.40;;;0.40;;
67348;SDS011;54234;50.320;3.474;2022-08-21T05:59:55;0.40;;;0.40;;
67348;SDS011;54234;50.320;3.474;2022-08-21T06:02:21;0.40;;;0.40;;
67348;SDS011;54234;50.320;3.474;2022-08-21T06:04:47;0.30;;;0.30;;
67348;SDS011;54234;50.320;3.474;2022-08-21T06:07:12;0.40;;;0.40;;
67348;SDS011;54234;50.320;3.474;2022-08-21T06:09:38;0.40;;;0.40;;
67348;SDS011;54234;50.320;3.474;2022-08-21T06:12:04;0.40;;;0.40;;
67348;SDS011;54234;50.320;3.474;2022-08-21T06:14:30;0.40;;;0.40;;
67348;SDS011;54234;50.320;3.474;2022-08-21T06:17:01;0.30;;;0.30;;
67348;SDS011;54234;50.320;3.474;2022-08-21T06:19:30;0.40;;;0.40;;
67348;SDS011;54234;50.320;3.474;2022-08-21T06:21:55;0.40;;;0.40;;
67348;SDS011;54234;50.320;3.474;2022-08-21T06:24:21;0.37;;;0.37;;
67348;SDS011;54234;50.320;3.474;2022-08-21T06:26:46;0.38;;;0.38;;
67348;SDS011;54234;50.320;3.474;2022-08-21T06:29:12;0.40;;;0.40;;
67348;SDS011;54234;50.320;3.474;2022-08-21T06:31:41;0.40;;;0.40;;
67348;SDS011;54234;50.320;3.474;2022-08-21T06:34:06;0.40;;;0.40;;
67348;SDS011;54234;50.320;3.474;2022-08-21T06:36:32;0.40;;;0.40;;
67348;SDS011;54234;50.320;3.474;2022-08-21T06:38:57;0.30;;;0.30;;
67348;SDS011;54234;50.320;3.474;2022-08-21T06:41:22;0.30;;;0.30;;
67348;SDS011;54234;50.320;3.474;2022-08-21T06:43:48;0.30;;;0.30;;
67348;SDS011;54234;50.320;3.474;2022-08-21T06:46:13;0.40;;;0.40;;
67348;SDS011;54234;50.320;3.474;2022-08-21T06:48:39;0.40;;;0.40;;
67348;SDS011;54234;50.320;3.474;2022-08-21T06:51:04;0.30;;;0.30;;
67348;SDS011;54234;50.320;3.474;2022-08-21T06:53:30;0.30;;;0.30;;
67348;SDS011;54234;50.320;3.474;2022-08-21T06:55:55;0.40;;;0.40;;
67348;SDS011;54234;50.320;3.474;2022-08-21T06:58:20;0.40;;;0.40;;
67348;SDS011;54234;50.320;3.474;2022-08-21T07:00:47;0.40;;;0.40;;
67348;SDS011;54234;50.320;3.474;2022-08-21T07:05:47;0.40;;;0.40;;
67348;SDS011;54234;50.320;3.474;2022-08-21T07:08:13;0.40;;;0.40;;
67348;SDS011;54234;50.320;3.474;2022-08-21T07:10:38;0.40;;;0.40;;
67348;SDS011;54234;50.320;3.474;2022-08-21T07:13:03;0.37;;;0.37;;
67348;SDS011;54234;50.320;3.474;2022-08-21T07:15:29;0.37;;;0.37;;
67348;SDS011;54234;50.320;3.474;2022-08-21T07:17:54;0.40;;;0.40;;
67348;SDS011;54234;50.320;3.474;2022-08-21T07:20:19;0.40;;;0.40;;
67348;SDS011;54234;50.320;3.474;2022-08-21T07:22:45;0.30;;;0.30;;
67348;SDS011;54234;50.320;3.474;2022-08-21T07:25:10;0.30;;;0.30;;
67348;SDS011;54234;50.320;3.474;2022-08-21T07:27:35;0.40;;;0.40;;
67348;SDS011;54234;50.320;3.474;2022-08-21T07:30:01;0.37;;;0.37;;
67348;SDS011;54234;50.320;3.474;2022-08-21T07:32:26;0.30;;;0.30;;
67348;SDS011;54234;50.320;3.474;2022-08-21T07:34:52;0.30;;;0.30;;
67348;SDS011;54234;50.320;3.474;2022-08-21T07:37:17;0.30;;;0.30;;
67348;SDS011;54234;50.320;3.474;2022-08-21T07:39:42;0.30;;;0.30;;
67348;SDS011;54234;50.320;3.474;2022-08-21T07:42:09;0.30;;;0.30;;
67348;SDS011;54234;50.320;3.474;2022-08-21T07:44:35;0.30;;;0.30;;
67348;SDS011;54234;50.320;3.474;2022-08-21T07:47:01;0.40;;;0.40;;
67348;SDS011;54234;50.320;3.474;2022-08-21T07:49:26;0.30;;;0.30;;
67348;SDS011;54234;50.320;3.474;2022-08-21T07:51:52;0.40;;;0.40;;
67348;SDS011;54234;50.320;3.474;2022-08-21T07:54:17;0.40;;;0.40;;
67348;SDS011;54234;50.320;3.474;2022-08-21T07:56:43;0.40;;;0.40;;
67348;SDS011;54234;50.320;3.474;2022-08-21T07:59:08;0.40;;;0.40;;
67348;SDS011;54234;50.320;3.474;2022-08-21T08:01:33;0.40;;;0.40;;
67348;SDS011;54234;50.320;3.474;2022-08-21T08:03:59;0.40;;;0.40;;
67348;SDS011;54234;50.320;3.474;2022-08-21T08:06:24;0.40;;;0.40;;
67348;SDS011;54234;50.320;3.474;2022-08-21T08:08:50;0.40;;;0.40;;
67348;SDS011;54234;50.320;3.474;2022-08-21T08:11:16;0.40;;;0.40;;
67348;SDS011;54234;50.320;3.474;2022-08-21T08:13:49;0.40;;;0.40;;
67348;SDS011;54234;50.320;3.474;2022-08-21T08:16:16;0.40;;;0.40;;
67348;SDS011;54234;50.320;3.474;2022-08-21T08:18:42;0.40;;;0.40;;
67348;SDS011;54234;50.320;3.474;2022-08-21T08:21:09;0.40;;;0.40;;
67348;SDS011;54234;50.320;3.474;2022-08-21T08:23:35;0.40;;;0.40;;
67348;SDS011;54234;50.320;3.474;2022-08-21T08:26:01;0.40;;;0.40;;
67348;SDS011;54234;50.320;3.474;2022-08-21T08:28:27;0.40;;;0.40;;
67348;SDS011;54234;50.320;3.474;2022-08-21T08:30:56;0.40;;;0.40;;
67348;SDS011;54234;50.320;3.474;2022-08-21T08:33:21;0.40;;;0.40;;
67348;SDS011;54234;50.320;3.474;2022-08-21T08:35:48;0.40;;;0.40;;
67348;SDS011;54234;50.320;3.474;2022-08-21T08:38:15;0.40;;;0.40;;
67348;SDS011;54234;50.320;3.474;2022-08-21T08:40:47;0.40;;;0.40;;
67348;SDS011;54234;50.320;3.474;2022-08-21T08:43:32;0.30;;;0.30;;
67348;SDS011;54234;50.320;3.474;2022-08-21T08:45:59;0.40;;;0.40;;
67348;SDS011;54234;50.320;3.474;2022-08-21T08:48:36;0.40;;;0.40;;
67348;SDS011;54234;50.320;3.474;2022-08-21T08:51:08;0.40;;;0.40;;
67348;SDS011;54234;50.320;3.474;2022-08-21T08:53:51;0.40;;;0.40;;
67348;SDS011;54234;50.320;3.474;2022-08-21T08:56:19;0.40;;;0.40;;
67348;SDS011;54234;50.320;3.474;2022-08-21T08:58:47;0.40;;;0.40;;
67348;SDS011;54234;50.320;3.474;2022-08-21T09:01:16;0.40;;;0.40;;
67348;SDS011;54234;50.320;3.474;2022-08-21T09:03:42;0.40;;;0.40;;
67348;SDS011;54234;50.320;3.474;2022-08-21T09:09:11;0.40;;;0.40;;
67348;SDS011;54234;50.320;3.474;2022-08-21T09:20:26;0.40;;;0.40;;
67348;SDS011;54234;50.320;3.474;2022-08-21T09:28:36;0.40;;;0.40;;
67348;SDS011;54234;50.320;3.474;2022-08-21T09:31:05;0.40;;;0.40;;
67348;SDS011;54234;50.320;3.474;2022-08-21T09:33:32;0.40;;;0.40;;
67348;SDS011;54234;50.320;3.474;2022-08-21T09:35:57;0.50;;;0.50;;
67348;SDS011;54234;50.320;3.474;2022-08-21T09:38:27;0.50;;;0.50;;
67348;SDS011;54234;50.320;3.474;2022-08-21T09:41:07;0.50;;;0.50;;
67348;SDS011;54234;50.320;3.474;2022-08-21T09:43:34;0.50;;;0.50;;
67348;SDS011;54234;50.320;3.474;2022-08-21T09:48:40;0.50;;;0.50;;
67348;SDS011;54234;50.320;3.474;2022-08-21T09:51:17;0.40;;;0.40;;
67348;SDS011;54234;50.320;3.474;2022-08-21T09:53:46;0.50;;;0.50;;
67348;SDS011;54234;50.320;3.474;2022-08-21T09:59:13;0.50;;;0.50;;
67348;SDS011;54234;50.320;3.474;2022-08-21T10:04:42;0.50;;;0.50;;
67348;SDS011;54234;50.320;3.474;2022-08-21T10:07:15;0.50;;;0.50;;
67348;SDS011;54234;50.320;3.474;2022-08-21T10:09:40;0.50;;;0.50;;
67348;SDS011;54234;50.320;3.474;2022-08-21T10:12:09;0.50;;;0.50;;
67348;SDS011;54234;50.320;3.474;2022-08-21T10:14:44;0.50;;;0.50;;
67348;SDS011;54234;50.320;3.474;2022-08-21T10:20:17;0.47;;;0.47;;
67348;SDS011;54234;50.320;3.474;2022-08-21T10:23:07;0.40;;;0.40;;
67348;SDS011;54234;50.320;3.474;2022-08-21T10:25:57;0.40;;;0.40;;
67348;SDS011;54234;50.320;3.474;2022-08-21T10:28:56;0.40;;;0.40;;
67348;SDS011;54234;50.320;3.474;2022-08-21T10:31:32;0.40;;;0.40;;
67348;SDS011;54234;50.320;3.474;2022-08-21T10:37:14;0.47;;;0.47;;
67348;SDS011;54234;50.320;3.474;2022-08-21T10:39:57;0.50;;;0.50;;
67348;SDS011;54234;50.320;3.474;2022-08-21T10:45:22;0.40;;;0.40;;
67348;SDS011;54234;50.320;3.474;2022-08-21T10:47:55;0.40;;;0.40;;
67348;SDS011;54234;50.320;3.474;2022-08-21T10:53:09;0.40;;;0.40;;
67348;SDS011;54234;50.320;3.474;2022-08-21T10:56:17;0.40;;;0.40;;
67348;SDS011;54234;50.320;3.474;2022-08-21T10:58:46;0.40;;;0.40;;
67348;SDS011;54234;50.320;3.474;2022-08-21T11:04:07;0.50;;;0.50;;
67348;SDS011;54234;50.320;3.474;2022-08-21T11:06:36;0.50;;;0.50;;
67348;SDS011;54234;50.320;3.474;2022-08-21T11:09:09;0.50;;;0.50;;
67348;SDS011;54234;50.320;3.474;2022-08-21T11:11:39;0.50;;;0.50;;
67348;SDS011;54234;50.320;3.474;2022-08-21T11:14:13;0.50;;;0.50;;
67348;SDS011;54234;50.320;3.474;2022-08-21T11:16:51;0.50;;;0.50;;
67348;SDS011;54234;50.320;3.474;2022-08-21T11:19:30;0.70;;;0.70;;
67348;SDS011;54234;50.320;3.474;2022-08-21T11:22:45;0.60;;;0.60;;
67348;SDS011;54234;50.320;3.474;2022-08-21T11:27:56;0.60;;;0.60;;
67348;SDS011;54234;50.320;3.474;2022-08-21T11:30:27;0.50;;;0.50;;
67348;SDS011;54234;50.320;3.474;2022-08-21T11:36:09;0.50;;;0.50;;
67348;SDS011;54234;50.320;3.474;2022-08-21T11:39:01;0.50;;;0.50;;
67348;SDS011;54234;50.320;3.474;2022-08-21T11:41:37;0.50;;;0.50;;
67348;SDS011;54234;50.320;3.474;2022-08-21T11:46:47;0.40;;;0.40;;
67348;SDS011;54234;50.320;3.474;2022-08-21T11:52:30;0.40;;;0.40;;
67348;SDS011;54234;50.320;3.474;2022-08-21T11:55:04;0.40;;;0.40;;
67348;SDS011;54234;50.320;3.474;2022-08-21T11:57:58;0.40;;;0.40;;
67348;SDS011;54234;50.320;3.474;2022-08-21T12:00:29;0.40;;;0.40;;
67348;SDS011;54234;50.320;3.474;2022-08-21T12:02:58;0.40;;;0.40;;
67348;SDS011;54234;50.320;3.474;2022-08-21T12:05:42;0.40;;;0.40;;
67348;SDS011;54234;50.320;3.474;2022-08-21T12:08:13;0.43;;;0.43;;
67348;SDS011;54234;50.320;3.474;2022-08-21T12:10:47;0.40;;;0.40;;
67348;SDS011;54234;50.320;3.474;2022-08-21T12:13:27;0.40;;;0.40;;
67348;SDS011;54234;50.320;3.474;2022-08-21T12:16:11;0.40;;;0.40;;
67348;SDS011;54234;50.320;3.474;2022-08-21T12:18:39;0.40;;;0.40;;
67348;SDS011;54234;50.320;3.474;2022-08-21T12:26:47;0.50;;;0.50;;
67348;SDS011;54234;50.320;3.474;2022-08-21T12:29:16;0.60;;;0.60;;
67348;SDS011;54234;50.320;3.474;2022-08-21T12:31:52;0.70;;;0.70;;
67348;SDS011;54234;50.320;3.474;2022-08-21T12:34:18;0.80;;;0.80;;
67348;SDS011;54234;50.320;3.474;2022-08-21T12:36:47;0.80;;;0.80;;
67348;SDS011;54234;50.320;3.474;2022-08-21T12:39:21;0.80;;;0.80;;
67348;SDS011;54234;50.320;3.474;2022-08-21T12:41:59;0.80;;;0.80;;
67348;SDS011;54234;50.320;3.474;2022-08-21T12:52:35;0.60;;;0.60;;
67348;SDS011;54234;50.320;3.474;2022-08-21T12:55:06;0.70;;;0.70;;
67348;SDS011;54234;50.320;3.474;2022-08-21T12:57:40;0.70;;;0.70;;
67348;SDS011;54234;50.320;3.474;2022-08-21T13:00:07;0.80;;;0.80;;
67348;SDS011;54234;50.320;3.474;2022-08-21T13:02:38;0.90;;;0.90;;
67348;SDS011;54234;50.320;3.474;2022-08-21T13:05:11;0.80;;;0.80;;
67348;SDS011;54234;50.320;3.474;2022-08-21T13:07:38;0.80;;;0.80;;
67348;SDS011;54234;50.320;3.474;2022-08-21T13:12:49;0.60;;;0.60;;
67348;SDS011;54234;50.320;3.474;2022-08-21T13:15:14;0.60;;;0.60;;
67348;SDS011;54234;50.320;3.474;2022-08-21T13:17:48;0.50;;;0.50;;
67348;SDS011;54234;50.320;3.474;2022-08-21T13:20:20;0.50;;;0.50;;
67348;SDS011;54234;50.320;3.474;2022-08-21T13:22:48;0.50;;;0.50;;
67348;SDS011;54234;50.320;3.474;2022-08-21T13:25:14;0.47;;;0.47;;
67348;SDS011;54234;50.320;3.474;2022-08-21T13:27:41;0.50;;;0.50;;
67348;SDS011;54234;50.320;3.474;2022-08-21T13:32:39;0.50;;;0.50;;
67348;SDS011;54234;50.320;3.474;2022-08-21T13:35:08;0.40;;;0.40;;
67348;SDS011;54234;50.320;3.474;2022-08-21T13:37:35;0.50;;;0.50;;
67348;SDS011;54234;50.320;3.474;2022-08-21T13:40:01;0.40;;;0.40;;
67348;SDS011;54234;50.320;3.474;2022-08-21T13:42:27;0.40;;;0.40;;
67348;SDS011;54234;50.320;3.474;2022-08-21T13:44:52;0.50;;;0.50;;
67348;SDS011;54234;50.320;3.474;2022-08-21T13:47:19;0.40;;;0.40;;
67348;SDS011;54234;50.320;3.474;2022-08-21T13:49:47;0.40;;;0.40;;
67348;SDS011;54234;50.320;3.474;2022-08-21T13:54:41;0.40;;;0.40;;
67348;SDS011;54234;50.320;3.474;2022-08-21T13:57:18;0.40;;;0.40;;
67348;SDS011;54234;50.320;3.474;2022-08-21T13:59:48;0.40;;;0.40;;
67348;SDS011;54234;50.320;3.474;2022-08-21T14:02:15;0.40;;;0.40;;
67348;SDS011;54234;50.320;3.474;2022-08-21T14:07:23;0.40;;;0.40;;
67348;SDS011;54234;50.320;3.474;2022-08-21T14:09:51;0.50;;;0.50;;
67348;SDS011;54234;50.320;3.474;2022-08-21T14:12:19;0.50;;;0.50;;
67348;SDS011;54234;50.320;3.474;2022-08-21T14:14:49;0.50;;;0.50;;
67348;SDS011;54234;50.320;3.474;2022-08-21T14:17:25;0.40;;;0.40;;
67348;SDS011;54234;50.320;3.474;2022-08-21T14:19:52;0.50;;;0.50;;
67348;SDS011;54234;50.320;3.474;2022-08-21T14:27:48;0.50;;;0.50;;
67348;SDS011;54234;50.320;3.474;2022-08-21T14:30:21;0.45;;;0.45;;
67348;SDS011;54234;50.320;3.474;2022-08-21T14:32:54;0.40;;;0.40;;
67348;SDS011;54234;50.320;3.474;2022-08-21T14:35:20;0.43;;;0.43;;
67348;SDS011;54234;50.320;3.474;2022-08-21T14:37:46;0.40;;;0.40;;
67348;SDS011;54234;50.320;3.474;2022-08-21T14:40:12;0.40;;;0.40;;
67348;SDS011;54234;50.320;3.474;2022-08-21T14:42:37;0.45;;;0.45;;
67348;SDS011;54234;50.320;3.474;2022-08-21T14:45:48;0.50;;;0.50;;
67348;SDS011;54234;50.320;3.474;2022-08-21T14:47:52;0.47;;;0.47;;
67348;SDS011;54234;50.320;3.474;2022-08-21T14:50:18;0.43;;;0.43;;
67348;SDS011;54234;50.320;3.474;2022-08-21T14:52:43;0.40;;;0.40;;
67348;SDS011;54234;50.320;3.474;2022-08-21T14:55:10;0.50;;;0.50;;
67348;SDS011;54234;50.320;3.474;2022-08-21T14:57:39;0.50;;;0.50;;
67348;SDS011;54234;50.320;3.474;2022-08-21T15:00:05;0.50;;;0.50;;
67348;SDS011;54234;50.320;3.474;2022-08-21T15:02:32;0.50;;;0.50;;
67348;SDS011;54234;50.320;3.474;2022-08-21T15:04:58;0.50;;;0.50;;
67348;SDS011;54234;50.320;3.474;2022-08-21T15:07:23;0.60;;;0.60;;
67348;SDS011;54234;50.320;3.474;2022-08-21T15:09:48;0.60;;;0.60;;
67348;SDS011;54234;50.320;3.474;2022-08-21T15:12:13;0.55;;;0.55;;
67348;SDS011;54234;50.320;3.474;2022-08-21T15:14:39;0.57;;;0.57;;
67348;SDS011;54234;50.320;3.474;2022-08-21T15:17:06;0.60;;;0.60;;
67348;SDS011;54234;50.320;3.474;2022-08-21T15:19:32;0.60;;;0.60;;
67348;SDS011;54234;50.320;3.474;2022-08-21T15:21:57;0.50;;;0.50;;
67348;SDS011;54234;50.320;3.474;2022-08-21T15:24:23;0.50;;;0.50;;
67348;SDS011;54234;50.320;3.474;2022-08-21T15:26:48;0.50;;;0.50;;
67348;SDS011;54234;50.320;3.474;2022-08-21T15:29:14;0.50;;;0.50;;
67348;SDS011;54234;50.320;3.474;2022-08-21T15:31:54;0.50;;;0.50;;
67348;SDS011;54234;50.320;3.474;2022-08-21T15:34:21;0.50;;;0.50;;
67348;SDS011;54234;50.320;3.474;2022-08-21T15:36:48;0.50;;;0.50;;
67348;SDS011;54234;50.320;3.474;2022-08-21T15:39:13;0.50;;;0.50;;
67348;SDS011;54234;50.320;3.474;2022-08-21T15:41:38;0.50;;;0.50;;
67348;SDS011;54234;50.320;3.474;2022-08-21T15:44:04;0.50;;;0.50;;
67348;SDS011;54234;50.320;3.474;2022-08-21T15:46:29;0.50;;;0.50;;
67348;SDS011;54234;50.320;3.474;2022-08-21T15:48:55;0.40;;;0.40;;
67348;SDS011;54234;50.320;3.474;2022-08-21T15:51:21;0.40;;;0.40;;
67348;SDS011;54234;50.320;3.474;2022-08-21T15:53:46;0.43;;;0.43;;
67348;SDS011;54234;50.320;3.474;2022-08-21T15:56:17;0.40;;;0.40;;
67348;SDS011;54234;50.320;3.474;2022-08-21T15:58:47;0.40;;;0.40;;
67348;SDS011;54234;50.320;3.474;2022-08-21T16:01:13;0.40;;;0.40;;
67348;SDS011;54234;50.320;3.474;2022-08-21T16:03:39;0.40;;;0.40;;
67348;SDS011;54234;50.320;3.474;2022-08-21T16:06:04;0.40;;;0.40;;
67348;SDS011;54234;50.320;3.474;2022-08-21T16:08:30;0.43;;;0.43;;
67348;SDS011;54234;50.320;3.474;2022-08-21T16:10:55;0.50;;;0.50;;
67348;SDS011;54234;50.320;3.474;2022-08-21T16:13:29;0.40;;;0.40;;
67348;SDS011;54234;50.320;3.474;2022-08-21T16:16:01;0.40;;;0.40;;
67348;SDS011;54234;50.320;3.474;2022-08-21T16:18:27;0.40;;;0.40;;
67348;SDS011;54234;50.320;3.474;2022-08-21T16:20:52;0.40;;;0.40;;